Time;durP1;ratioP1;P1;durP2;ratioP2;P2;SDS_P1;SDS_P2;PMS_P1;PMS_P2;Temp;Humidity;BMP_temperature;BMP_pressure;BME280_temperature;BME280_humidity;BME280_pressure;Samples;Min_cycle;Max_cycle;Signal;HPM_P1;HPM_P2
2020/12/10 00:02:02;;;;;;;10.05;6.47;;;5.40;80.20;;;;;;4990698;28;20027;-81
2020/12/10 00:04:27;;;;;;;10.77;6.35;;;5.40;80.30;;;;;;4960661;28;20042;-77
2020/12/10 00:06:53;;;;;;;9.85;6.03;;;5.40;80.20;;;;;;4994607;28;20066;-78
2020/12/10 00:09:19;;;;;;;8.77;5.50;;;5.40;80.30;;;;;;4984234;28;20034;-77
2020/12/10 00:11:45;;;;;;;9.80;5.78;;;5.40;80.30;;;;;;4975838;28;20121;-77
2020/12/10 00:14:10;;;;;;;9.57;6.22;;;5.40;80.30;;;;;;4975324;28;20045;-77
2020/12/10 00:16:36;;;;;;;8.90;5.65;;;5.40;80.30;;;;;;4978458;28;20125;-77
2020/12/10 00:19:03;;;;;;;8.20;5.22;;;5.40;80.20;;;;;;4991225;28;20026;-77
2020/12/10 00:21:29;;;;;;;9.00;5.82;;;5.40;80.30;;;;;;4994932;28;20045;-77
2020/12/10 00:23:54;;;;;;;8.68;5.82;;;5.40;80.20;;;;;;5001175;28;20031;-77
2020/12/10 00:26:21;;;;;;;9.57;6.07;;;5.40;80.20;;;;;;4974911;28;20534;-77
2020/12/10 00:28:46;;;;;;;10.15;6.13;;;5.40;80.30;;;;;;4975110;28;20034;-76
2020/12/10 00:31:13;;;;;;;8.98;5.85;;;5.40;80.20;;;;;;4963368;28;20133;-76
2020/12/10 00:33:39;;;;;;;9.40;5.43;;;5.40;80.20;;;;;;4965840;28;20050;-77
2020/12/10 00:36:04;;;;;;;8.88;5.60;;;5.40;80.20;;;;;;5013851;28;20030;-78
2020/12/10 00:38:30;;;;;;;9.77;5.70;;;5.40;80.40;;;;;;4974885;28;20085;-77
2020/12/10 00:40:56;;;;;;;8.77;5.82;;;5.40;80.20;;;;;;4976290;28;20486;-77
2020/12/10 00:43:22;;;;;;;9.93;6.20;;;5.40;80.20;;;;;;4993504;28;20037;-77
2020/12/10 00:45:48;;;;;;;9.52;6.25;;;5.40;80.20;;;;;;4954008;28;20035;-77
2020/12/10 00:48:14;;;;;;;9.18;5.75;;;5.40;80.10;;;;;;4959220;28;20170;-76
2020/12/10 00:50:40;;;;;;;9.32;6.00;;;5.40;80.20;;;;;;4995478;28;20559;-80
2020/12/10 00:53:06;;;;;;;9.30;5.80;;;5.40;80.10;;;;;;4974105;28;20074;-78
2020/12/10 00:55:33;;;;;;;9.40;6.32;;;5.40;80.20;;;;;;4988093;28;20106;-76
2020/12/10 00:57:59;;;;;;;10.18;6.10;;;5.40;80.20;;;;;;4976850;28;20519;-77
2020/12/10 01:00:24;;;;;;;8.82;5.95;;;5.30;80.10;;;;;;4979187;28;20863;-76
2020/12/10 01:02:50;;;;;;;8.88;6.25;;;5.40;80.10;;;;;;4974767;28;20030;-79
2020/12/10 01:05:16;;;;;;;8.75;5.88;;;5.30;80.00;;;;;;5006538;28;20386;-78
2020/12/10 01:07:42;;;;;;;8.95;5.70;;;5.30;80.10;;;;;;4974681;28;20566;-77
2020/12/10 01:10:07;;;;;;;9.90;6.53;;;5.30;80.10;;;;;;4973109;28;20027;-77
2020/12/10 01:12:33;;;;;;;8.85;6.03;;;5.30;80.10;;;;;;4964801;28;20395;-76
2020/12/10 01:14:59;;;;;;;8.68;5.50;;;5.20;80.00;;;;;;4990277;28;20513;-76
2020/12/10 01:17:25;;;;;;;9.82;6.50;;;5.30;80.10;;;;;;4995999;28;20036;-75
2020/12/10 01:19:52;;;;;;;9.00;6.00;;;5.30;80.10;;;;;;4982737;28;20480;-75
2020/12/10 01:22:17;;;;;;;9.07;5.93;;;5.20;80.00;;;;;;4941880;28;20062;-75
2020/12/10 01:24:43;;;;;;;10.45;6.63;;;5.20;80.00;;;;;;4982584;28;20054;-74
2020/12/10 01:27:09;;;;;;;9.23;5.75;;;5.20;80.00;;;;;;4990429;28;20464;-75
2020/12/10 01:29:35;;;;;;;9.50;6.07;;;5.20;80.00;;;;;;4962305;28;20033;-74
2020/12/10 01:32:00;;;;;;;10.73;6.47;;;5.20;80.00;;;;;;4988264;28;20038;-75
2020/12/10 01:34:26;;;;;;;10.98;6.70;;;5.20;80.00;;;;;;4957249;28;20493;-74
2020/12/10 01:36:52;;;;;;;9.75;6.03;;;5.10;80.00;;;;;;4957702;28;20031;-75
2020/12/10 01:39:17;;;;;;;9.60;6.40;;;5.10;80.00;;;;;;4955737;28;20129;-75
2020/12/10 01:41:43;;;;;;;8.27;5.90;;;5.20;80.00;;;;;;4973416;28;20542;-75
2020/12/10 01:44:13;;;;;;;9.48;6.13;;;5.10;79.90;;;;;;4970568;28;20034;-77
2020/12/10 01:46:41;;;;;;;8.95;5.93;;;5.10;80.10;;;;;;4973324;28;20526;-76
2020/12/10 01:49:07;;;;;;;10.10;6.30;;;5.10;80.00;;;;;;4974898;28;20065;-74
2020/12/10 01:51:34;;;;;;;9.07;5.97;;;5.10;80.00;;;;;;4973681;28;20058;-74
2020/12/10 01:54:04;;;;;;;9.40;6.00;;;5.10;80.00;;;;;;4976134;28;20031;-75
2020/12/10 01:56:29;;;;;;;9.20;5.93;;;5.10;80.00;;;;;;4986587;28;20486;-74
2020/12/10 01:58:56;;;;;;;9.75;6.47;;;5.10;80.00;;;;;;4976689;28;20038;-75
2020/12/10 02:01:21;;;;;;;8.80;6.35;;;5.00;80.00;;;;;;4989053;28;20050;-76
2020/12/10 02:03:47;;;;;;;9.45;6.00;;;5.00;80.00;;;;;;4973347;28;20038;-74
2020/12/10 02:06:13;;;;;;;10.77;6.93;;;5.00;80.00;;;;;;4941205;28;20031;-75
2020/12/10 02:08:42;;;;;;;9.05;6.10;;;5.00;79.90;;;;;;4956544;28;20145;-76
2020/12/10 02:11:12;;;;;;;8.77;6.32;;;5.00;80.00;;;;;;4984550;28;20084;-74
2020/12/10 02:13:39;;;;;;;10.75;6.88;;;5.00;80.00;;;;;;4990959;28;20030;-77
2020/12/10 02:16:06;;;;;;;11.13;7.13;;;5.00;79.90;;;;;;4976425;28;20036;-76
2020/12/10 02:18:33;;;;;;;9.85;6.22;;;5.00;80.00;;;;;;4976596;28;20037;-76
2020/12/10 02:20:58;;;;;;;9.00;6.40;;;4.90;79.90;;;;;;4978912;28;20161;-75
2020/12/10 02:23:24;;;;;;;10.57;6.93;;;5.00;79.90;;;;;;4992374;28;20125;-76
2020/12/10 02:25:50;;;;;;;10.07;6.50;;;4.90;79.90;;;;;;4985639;28;20026;-74
2020/12/10 02:28:17;;;;;;;10.13;6.82;;;4.90;79.90;;;;;;4992141;28;20042;-74
2020/12/10 02:30:45;;;;;;;10.13;6.60;;;4.90;79.90;;;;;;4991892;28;20455;-74
2020/12/10 02:33:12;;;;;;;10.27;6.63;;;4.90;79.90;;;;;;4992141;28;20030;-75
2020/12/10 02:35:39;;;;;;;9.80;6.70;;;4.90;80.00;;;;;;4983845;28;20035;-77
2020/12/10 02:38:08;;;;;;;9.63;6.35;;;4.90;80.00;;;;;;4977042;28;20027;-75
2020/12/10 02:40:40;;;;;;;9.40;6.55;;;4.80;80.00;;;;;;4973410;28;20089;-75
2020/12/10 02:43:06;;;;;;;11.05;7.20;;;4.80;79.90;;;;;;4992538;28;20061;-75
2020/12/10 02:45:32;;;;;;;9.93;6.80;;;4.80;79.90;;;;;;4978272;28;20037;-76
2020/12/10 02:47:58;;;;;;;9.75;6.72;;;4.80;79.90;;;;;;4972750;28;20062;-75
2020/12/10 02:50:25;;;;;;;10.48;6.70;;;4.80;79.80;;;;;;4986278;28;20106;-75
2020/12/10 02:52:51;;;;;;;9.75;6.65;;;4.80;79.90;;;;;;4987393;28;20447;-75
2020/12/10 02:55:16;;;;;;;11.23;7.20;;;4.80;79.90;;;;;;4985028;28;20065;-75
2020/12/10 02:57:42;;;;;;;10.82;6.72;;;4.70;79.80;;;;;;4986466;28;20038;-76
2020/12/10 03:00:10;;;;;;;11.10;6.82;;;4.70;79.80;;;;;;4975901;28;20540;-75
2020/12/10 03:02:37;;;;;;;10.75;6.80;;;4.70;79.80;;;;;;4988809;28;20043;-76
2020/12/10 03:05:05;;;;;;;12.32;7.38;;;4.70;79.80;;;;;;4990613;28;20463;-75
2020/12/10 03:07:30;;;;;;;10.05;6.40;;;4.70;79.80;;;;;;4986271;28;20121;-75
2020/12/10 03:09:56;;;;;;;10.95;7.30;;;4.70;79.80;;;;;;4988177;28;20041;-75
2020/12/10 03:12:22;;;;;;;11.23;7.28;;;4.60;79.70;;;;;;4988645;28;20042;-74
2020/12/10 03:14:47;;;;;;;10.60;7.28;;;4.60;79.70;;;;;;4974179;28;20027;-74
2020/12/10 03:17:13;;;;;;;11.05;6.82;;;4.60;79.80;;;;;;4988279;28;20037;-75
2020/12/10 03:19:39;;;;;;;10.57;6.75;;;4.60;79.90;;;;;;4972592;28;20046;-75
2020/12/10 03:22:05;;;;;;;11.68;7.47;;;4.60;79.80;;;;;;4978838;28;20546;-75
2020/12/10 03:24:31;;;;;;;11.07;7.05;;;4.60;79.70;;;;;;5006981;28;20454;-74
2020/12/10 03:26:56;;;;;;;11.20;6.65;;;4.50;79.70;;;;;;4987548;28;20181;-75
2020/12/10 03:29:22;;;;;;;12.13;7.63;;;4.50;79.70;;;;;;4972969;28;20038;-75
2020/12/10 03:31:48;;;;;;;11.25;7.13;;;4.50;79.70;;;;;;4993349;28;20031;-75
2020/12/10 03:34:15;;;;;;;12.55;7.65;;;4.50;79.70;;;;;;4971792;28;20026;-77
2020/12/10 03:36:52;;;;;;;10.63;7.00;;;4.50;79.70;;;;;;4989766;28;20092;-77
2020/12/10 03:39:19;;;;;;;10.48;6.82;;;4.40;79.70;;;;;;4992649;28;20045;-77
2020/12/10 03:41:46;;;;;;;10.85;7.05;;;4.50;79.70;;;;;;4990512;28;20031;-76
2020/12/10 03:44:13;;;;;;;10.95;6.93;;;4.50;79.70;;;;;;4988061;28;20031;-77
2020/12/10 03:46:39;;;;;;;11.15;7.25;;;4.40;79.70;;;;;;4982637;28;20030;-77
2020/12/10 03:49:06;;;;;;;10.80;7.22;;;4.40;79.70;;;;;;4956183;28;20042;-77
2020/12/10 03:51:32;;;;;;;10.98;6.97;;;4.40;79.70;;;;;;4969902;28;20106;-76
2020/12/10 03:53:59;;;;;;;10.32;7.05;;;4.30;79.60;;;;;;4995155;28;20450;-76
2020/12/10 03:56:25;;;;;;;11.07;7.10;;;4.30;79.70;;;;;;4976012;28;20022;-76
2020/12/10 03:58:51;;;;;;;9.57;6.47;;;4.30;79.60;;;;;;4978507;28;20096;-76
2020/12/10 04:01:17;;;;;;;11.35;7.07;;;4.30;79.70;;;;;;4962357;28;20444;-77
2020/12/10 04:03:43;;;;;;;11.27;7.00;;;4.30;79.70;;;;;;4975449;28;20035;-77
2020/12/10 04:06:10;;;;;;;10.20;6.80;;;4.30;79.70;;;;;;4971561;28;20023;-77
2020/12/10 04:08:36;;;;;;;11.48;6.97;;;4.20;79.60;;;;;;4981635;28;20062;-77
2020/12/10 04:11:03;;;;;;;10.80;7.40;;;4.30;79.70;;;;;;4981349;28;20038;-77
2020/12/10 04:13:29;;;;;;;10.57;7.05;;;4.20;79.60;;;;;;5010443;28;20145;-77
2020/12/10 04:15:55;;;;;;;11.50;7.47;;;4.20;79.70;;;;;;4990587;28;20119;-76
2020/12/10 04:18:24;;;;;;;10.93;7.13;;;4.20;79.60;;;;;;4986011;28;20045;-77
2020/12/10 04:20:50;;;;;;;10.45;7.00;;;4.20;79.70;;;;;;4993487;28;20054;-77
2020/12/10 04:23:15;;;;;;;10.98;7.07;;;4.20;79.60;;;;;;5008378;28;20063;-80
2020/12/10 04:25:42;;;;;;;10.35;6.65;;;4.20;79.70;;;;;;4986350;28;20129;-78
2020/12/10 04:28:07;;;;;;;9.25;6.07;;;4.10;79.60;;;;;;4974645;28;20484;-76
2020/12/10 04:30:33;;;;;;;9.65;6.63;;;4.10;79.60;;;;;;4943845;28;20055;-76
2020/12/10 04:32:59;;;;;;;11.30;6.75;;;4.10;79.60;;;;;;4989368;28;20483;-77
2020/12/10 04:35:24;;;;;;;10.63;7.05;;;4.10;79.60;;;;;;4985579;28;20030;-76
2020/12/10 04:37:50;;;;;;;10.57;6.45;;;4.10;79.60;;;;;;4990114;28;20046;-79
2020/12/10 04:40:16;;;;;;;10.45;6.53;;;4.10;79.60;;;;;;4980671;28;20034;-76
2020/12/10 04:42:43;;;;;;;10.85;7.07;;;4.10;79.70;;;;;;5009518;28;20031;-77
2020/12/10 04:45:09;;;;;;;9.80;6.38;;;4.10;80.30;;;;;;4990256;28;20035;-77
2020/12/10 04:47:37;;;;;;;12.35;7.28;;;4.10;79.70;;;;;;4988190;28;20378;-77
2020/12/10 04:50:04;;;;;;;10.18;6.38;;;4.00;79.60;;;;;;4988149;28;20071;-77
2020/12/10 04:52:33;;;;;;;11.65;7.35;;;4.00;79.60;;;;;;4974481;28;20054;-77
2020/12/10 04:55:00;;;;;;;11.93;7.05;;;4.00;79.60;;;;;;4974873;28;20240;-77
2020/12/10 04:57:29;;;;;;;11.20;6.90;;;4.00;79.60;;;;;;4950827;28;20034;-77
2020/12/10 04:59:55;;;;;;;11.38;7.20;;;4.00;79.70;;;;;;4943127;28;20038;-77
2020/12/10 05:02:21;;;;;;;9.90;6.38;;;4.00;79.60;;;;;;4989597;28;20034;-77
2020/12/10 05:04:47;;;;;;;11.43;7.13;;;4.00;79.60;;;;;;4990709;28;20113;-77
2020/12/10 05:07:13;;;;;;;10.45;6.78;;;3.90;79.60;;;;;;5013037;28;20188;-77
2020/12/10 05:09:39;;;;;;;10.82;7.25;;;3.90;79.60;;;;;;4993796;28;20042;-76
2020/12/10 05:12:18;;;;;;;10.52;6.95;;;3.90;79.60;;;;;;4990569;28;20041;-77
2020/12/10 05:14:47;;;;;;;9.63;6.78;;;3.90;79.70;;;;;;4974433;28;20034;-77
2020/12/10 05:17:15;;;;;;;10.77;6.82;;;3.90;79.60;;;;;;4975043;28;20042;-77
2020/12/10 05:19:42;;;;;;;9.93;6.70;;;3.90;79.60;;;;;;4973878;28;20130;-77
2020/12/10 05:22:09;;;;;;;11.57;7.13;;;3.90;79.60;;;;;;4973730;28;20030;-76
2020/12/10 05:24:35;;;;;;;11.85;7.20;;;3.90;79.60;;;;;;4966744;28;20054;-77
2020/12/10 05:27:34;;;;;;;10.85;7.63;;;3.80;79.60;;;;;;4988812;28;20031;-77
2020/12/10 05:30:00;;;;;;;11.00;6.78;;;3.80;79.70;;;;;;4974041;28;20078;-76
2020/12/10 05:32:38;;;;;;;9.50;6.32;;;3.80;79.60;;;;;;4992804;28;20112;-77
2020/12/10 05:35:13;;;;;;;10.75;7.25;;;3.80;79.60;;;;;;4992336;28;20113;-77
2020/12/10 05:37:39;;;;;;;10.05;7.05;;;3.70;79.60;;;;;;4992464;28;20038;-77
2020/12/10 05:40:06;;;;;;;11.75;6.88;;;3.70;79.50;;;;;;4971835;28;20058;-77
2020/12/10 05:42:41;;;;;;;10.45;6.65;;;3.70;79.60;;;;;;4972962;28;20041;-76
2020/12/10 05:45:14;;;;;;;11.25;7.32;;;3.70;79.60;;;;;;4969606;28;20594;-77
2020/12/10 05:47:48;;;;;;;10.10;7.15;;;3.70;79.60;;;;;;4973020;28;20034;-77
2020/12/10 05:50:15;;;;;;;11.93;7.30;;;3.70;79.60;;;;;;4959539;28;20027;-77
2020/12/10 05:53:04;;;;;;;11.73;7.88;;;3.70;79.60;;;;;;4992729;28;20455;-77
2020/12/10 05:55:31;;;;;;;10.45;6.93;;;3.70;79.60;;;;;;4989570;28;20034;-77
2020/12/10 05:58:00;;;;;;;9.70;6.60;;;3.60;79.50;;;;;;4981354;28;20066;-77
2020/12/10 06:00:27;;;;;;;11.88;7.43;;;3.60;79.60;;;;;;4985403;28;20403;-77
2020/12/10 06:02:55;;;;;;;11.40;7.03;;;3.60;79.60;;;;;;4973327;28;20030;-77
2020/12/10 06:05:23;;;;;;;11.38;7.07;;;3.60;79.60;;;;;;4957190;28;20035;-77
2020/12/10 06:08:08;;;;;;;10.85;6.93;;;3.60;79.60;;;;;;4981898;28;20062;-75
2020/12/10 06:10:41;;;;;;;10.70;6.82;;;3.60;79.60;;;;;;4988978;28;20022;-75
2020/12/10 06:13:08;;;;;;;12.32;7.47;;;3.60;79.60;;;;;;4972905;28;20078;-76
2020/12/10 06:15:35;;;;;;;11.68;6.78;;;3.50;79.50;;;;;;4997299;28;20126;-76
2020/12/10 06:18:06;;;;;;;12.32;7.38;;;3.50;79.50;;;;;;4974095;28;20031;-77
2020/12/10 06:20:38;;;;;;;12.93;8.00;;;3.60;79.60;;;;;;4974190;28;20053;-77
2020/12/10 06:23:42;;;;;;;9.27;6.63;;;3.50;79.60;;;;;;4957230;28;20034;-77
2020/12/10 06:26:33;;;;;;;11.50;7.60;;;3.50;79.60;;;;;;4939944;28;20527;-76
2020/12/10 06:29:21;;;;;;;12.18;6.90;;;3.50;79.60;;;;;;4967030;28;20254;-76
2020/12/10 06:32:06;;;;;;;13.55;7.85;;;3.50;79.60;;;;;;4968152;28;20049;-76
2020/12/10 06:34:33;;;;;;;;;;;3.40;79.50;;;;;;4973146;28;20109;-76
2020/12/10 06:37:29;;;;;;;11.25;6.93;;;3.50;80.20;;;;;;4992307;28;20324;-76
2020/12/10 06:40:00;;;;;;;11.00;6.72;;;3.40;79.50;;;;;;4986103;28;20101;-76
2020/12/10 06:42:46;;;;;;;11.68;7.63;;;3.40;79.40;;;;;;4974054;28;20027;-76
2020/12/10 06:45:38;;;;;;;12.00;7.63;;;3.40;79.60;;;;;;4973760;28;20042;-75
2020/12/10 06:48:08;;;;;;;10.93;7.53;;;3.30;79.50;;;;;;4964859;28;20031;-76
2020/12/10 06:50:39;;;;;;;12.75;7.82;;;3.40;79.60;;;;;;4956556;28;20031;-76
2020/12/10 06:53:15;;;;;;;12.48;7.47;;;3.30;79.50;;;;;;4989919;28;20113;-76
2020/12/10 06:56:00;;;;;;;12.13;7.88;;;3.30;79.50;;;;;;4991064;28;20467;-77
2020/12/10 06:58:42;;;;;;;12.07;7.47;;;3.30;79.60;;;;;;4991452;28;20045;-77
2020/12/10 07:01:27;;;;;;;11.07;6.95;;;3.40;79.60;;;;;;4988595;28;20034;-76
2020/12/10 07:04:30;;;;;;;11.10;7.47;;;3.30;79.60;;;;;;4973976;28;20027;-76
2020/12/10 07:07:16;;;;;;;13.00;7.75;;;3.30;79.50;;;;;;4963419;28;20051;-76
2020/12/10 07:09:57;;;;;;;12.27;7.60;;;3.30;79.60;;;;;;4976805;28;20462;-77
2020/12/10 07:12:33;;;;;;;11.40;7.25;;;3.30;79.50;;;;;;4981737;28;20035;-77
2020/12/10 07:15:16;;;;;;;11.40;7.10;;;3.30;79.50;;;;;;4994327;28;20018;-77
2020/12/10 07:17:50;;;;;;;12.00;7.93;;;3.20;79.50;;;;;;4973900;28;20043;-76
2020/12/10 07:20:16;;;;;;;13.33;7.80;;;3.20;79.50;;;;;;4991156;28;20031;-76
2020/12/10 07:22:42;;;;;;;11.40;7.78;;;3.20;79.50;;;;;;4986274;28;20026;-78
2020/12/10 07:25:08;;;;;;;13.10;8.10;;;3.20;79.50;;;;;;5009359;28;20447;-76
2020/12/10 07:27:34;;;;;;;11.65;7.50;;;3.20;79.50;;;;;;4990797;28;20086;-76
2020/12/10 07:30:02;;;;;;;10.68;7.18;;;3.20;79.50;;;;;;4981372;28;20442;-77
2020/12/10 07:32:28;;;;;;;12.23;7.93;;;3.20;79.50;;;;;;4978008;28;20030;-76
2020/12/10 07:34:55;;;;;;;14.18;8.20;;;3.20;80.10;;;;;;4982712;28;20046;-78
2020/12/10 07:37:29;;;;;;;12.98;8.07;;;3.20;79.50;;;;;;4990215;28;20042;-76
2020/12/10 07:39:55;;;;;;;12.25;7.72;;;3.20;79.50;;;;;;4982955;28;20049;-76
2020/12/10 07:42:23;;;;;;;12.80;8.32;;;3.20;79.50;;;;;;4982964;28;20030;-76
2020/12/10 07:44:50;;;;;;;12.57;7.78;;;3.20;79.50;;;;;;4979518;28;20114;-79
2020/12/10 07:47:16;;;;;;;12.77;7.95;;;3.20;79.50;;;;;;4974952;28;20026;-76
2020/12/10 07:49:42;;;;;;;12.27;7.70;;;3.20;79.50;;;;;;4979584;28;20042;-75
2020/12/10 07:52:10;;;;;;;10.15;7.00;;;3.10;79.50;;;;;;4974963;28;20027;-76
2020/12/10 07:54:45;;;;;;;11.68;7.82;;;3.20;79.60;;;;;;4988162;28;20031;-76
2020/12/10 07:57:30;;;;;;;13.20;8.05;;;3.10;79.50;;;;;;4987554;28;20073;-77
2020/12/10 08:00:16;;;;;;;14.23;8.10;;;3.10;79.50;;;;;;4985218;28;20092;-75
2020/12/10 08:02:50;;;;;;;13.77;7.90;;;3.10;79.50;;;;;;4994918;28;20049;-76
2020/12/10 08:05:18;;;;;;;11.25;7.18;;;3.10;79.50;;;;;;4992707;28;20027;-76
2020/12/10 08:07:52;;;;;;;12.02;7.93;;;3.10;79.50;;;;;;4975295;28;20047;-76
2020/12/10 08:10:35;;;;;;;12.35;8.30;;;3.10;79.50;;;;;;4976846;28;20039;-76
2020/12/10 08:13:17;;;;;;;12.40;8.05;;;3.10;79.50;;;;;;4974084;28;20038;-76
2020/12/10 08:15:52;;;;;;;11.85;7.53;;;3.00;79.50;;;;;;4992888;28;20030;-77
2020/12/10 08:18:19;;;;;;;12.10;7.90;;;3.10;79.50;;;;;;4993809;28;20482;-79
2020/12/10 08:20:48;;;;;;;13.25;7.82;;;3.00;79.50;;;;;;4975708;28;20038;-76
2020/12/10 08:23:16;;;;;;;13.50;8.18;;;3.00;79.50;;;;;;4983954;28;20105;-76
2020/12/10 08:25:43;;;;;;;12.10;7.55;;;3.00;79.50;;;;;;4985064;28;20027;-76
2020/12/10 08:28:17;;;;;;;14.15;8.23;;;3.00;79.50;;;;;;4994419;28;20046;-76
2020/12/10 08:30:53;;;;;;;13.02;8.30;;;3.00;79.50;;;;;;4969279;28;20055;-76
2020/12/10 08:33:19;;;;;;;12.38;8.23;;;3.00;79.50;;;;;;4985393;28;20476;-76
2020/12/10 08:35:46;;;;;;;12.02;7.60;;;3.00;79.50;;;;;;4970907;28;20021;-77
2020/12/10 08:38:15;;;;;;;11.35;7.85;;;3.00;79.50;;;;;;4992992;28;20129;-76
2020/12/10 08:40:42;;;;;;;13.07;8.30;;;3.00;79.50;;;;;;4977653;28;20030;-78
2020/12/10 08:43:14;;;;;;;11.70;7.82;;;3.00;79.50;;;;;;4973485;28;20039;-75
2020/12/10 08:45:44;;;;;;;12.13;8.55;;;3.00;79.50;;;;;;4990453;28;20025;-76
2020/12/10 08:48:12;;;;;;;13.80;8.43;;;3.00;79.50;;;;;;4990896;28;20035;-80
2020/12/10 08:50:49;;;;;;;11.95;7.47;;;3.00;79.50;;;;;;4986788;28;20471;-74
2020/12/10 08:53:15;;;;;;;13.13;7.63;;;3.00;79.60;;;;;;4982845;28;20035;-81
2020/12/10 08:55:45;;;;;;;12.63;8.02;;;3.00;79.50;;;;;;4991376;28;20046;-77
2020/12/10 08:58:18;;;;;;;14.70;8.70;;;3.00;79.50;;;;;;4979643;28;20035;-77
2020/12/10 09:00:44;;;;;;;12.40;7.75;;;3.00;79.50;;;;;;4991260;28;20485;-76
2020/12/10 09:03:10;;;;;;;12.07;7.90;;;3.00;79.50;;;;;;4995039;28;20501;-79
2020/12/10 09:05:36;;;;;;;13.63;8.93;;;3.00;79.50;;;;;;4990392;28;20038;-76
2020/12/10 09:08:03;;;;;;;12.43;7.93;;;3.00;79.50;;;;;;4976351;28;20058;-75
2020/12/10 09:10:30;;;;;;;12.82;8.20;;;3.00;79.50;;;;;;4963940;28;20030;-75
2020/12/10 09:12:58;;;;;;;12.00;7.75;;;3.00;80.20;;;;;;4988887;28;20038;-76
2020/12/10 09:15:26;;;;;;;13.75;7.63;;;3.00;79.50;;;;;;4981447;28;20046;-82
2020/12/10 09:17:52;;;;;;;11.77;7.70;;;3.00;79.50;;;;;;4962101;28;20045;-76
2020/12/10 09:20:19;;;;;;;13.95;8.23;;;3.00;79.50;;;;;;4973734;28;20089;-76
2020/12/10 09:22:45;;;;;;;12.60;8.07;;;3.00;79.50;;;;;;4989070;28;20023;-76
2020/12/10 09:25:30;;;;;;;13.95;8.32;;;3.00;79.50;;;;;;4989668;28;20034;-81
2020/12/10 09:27:56;;;;;;;12.32;8.13;;;3.00;79.60;;;;;;4980592;28;20041;-75
2020/12/10 09:30:22;;;;;;;12.98;8.10;;;3.00;79.50;;;;;;4985977;28;20030;-76
2020/12/10 09:32:51;;;;;;;12.52;8.07;;;3.00;79.50;;;;;;4974378;28;20058;-75
2020/12/10 09:35:19;;;;;;;14.05;8.63;;;3.00;79.50;;;;;;4981812;28;20040;-76
2020/12/10 09:37:47;;;;;;;11.95;7.97;;;3.00;79.50;;;;;;4975788;28;20133;-76
2020/12/10 09:40:13;;;;;;;12.82;8.63;;;3.00;79.50;;;;;;4976572;28;20450;-76
2020/12/10 09:42:49;;;;;;;11.32;7.40;;;3.00;79.50;;;;;;4987971;28;20034;-76
2020/12/10 09:45:31;;;;;;;13.45;8.18;;;3.00;79.60;;;;;;4992497;28;20479;-76
2020/12/10 09:47:59;;;;;;;13.10;8.35;;;3.00;79.60;;;;;;4986978;28;20109;-76
2020/12/10 09:50:28;;;;;;;12.73;7.82;;;3.00;79.50;;;;;;4988357;28;20459;-77
2020/12/10 09:53:03;;;;;;;14.63;8.70;;;3.00;79.50;;;;;;4977349;28;20080;-79
2020/12/10 09:58:03;;;;;;;12.55;8.57;;;3.00;79.50;;;;;;4992616;28;20038;-77
2020/12/10 10:00:30;;;;;;;12.95;8.07;;;3.00;79.50;;;;;;4982216;28;20454;-75
2020/12/10 10:02:57;;;;;;;13.20;8.52;;;3.00;79.50;;;;;;4990806;28;20038;-77
2020/12/10 10:05:23;;;;;;;14.10;8.48;;;3.00;79.60;;;;;;4976308;28;20395;-77
2020/12/10 10:07:50;;;;;;;11.60;7.72;;;3.00;79.60;;;;;;4983541;28;20065;-77
2020/12/10 10:10:16;;;;;;;13.05;7.88;;;3.00;79.60;;;;;;4989484;28;20061;-77
2020/12/10 10:12:42;;;;;;;12.95;8.00;;;3.00;79.60;;;;;;4972241;28;20046;-78
2020/12/10 10:15:24;;;;;;;12.77;7.70;;;3.00;79.60;;;;;;4989188;28;20127;-77
2020/12/10 10:17:51;;;;;;;12.82;8.05;;;3.00;79.70;;;;;;4984540;28;20137;-77
2020/12/10 10:20:16;;;;;;;12.90;7.88;;;3.00;79.60;;;;;;4976418;28;20057;-77
2020/12/10 10:22:43;;;;;;;13.20;8.27;;;3.10;79.70;;;;;;5008886;28;20034;-76
2020/12/10 10:25:08;;;;;;;14.15;7.78;;;3.10;79.60;;;;;;5008454;28;20034;-77
2020/12/10 10:27:36;;;;;;;12.95;8.55;;;3.10;79.60;;;;;;4991925;28;20526;-76
2020/12/10 10:30:05;;;;;;;13.55;8.35;;;3.10;79.70;;;;;;4973800;28;20034;-76
2020/12/10 10:32:35;;;;;;;13.88;8.73;;;3.10;79.70;;;;;;4987711;28;20351;-76
2020/12/10 10:35:01;;;;;;;13.10;8.55;;;3.10;79.70;;;;;;5007990;28;20042;-76
2020/12/10 10:37:29;;;;;;;13.38;8.07;;;3.10;79.70;;;;;;4990884;28;20049;-75
2020/12/10 10:39:55;;;;;;;12.32;7.72;;;3.10;79.70;;;;;;4956082;28;20403;-79
2020/12/10 10:42:20;;;;;;;14.45;8.55;;;3.10;79.70;;;;;;4991449;28;20023;-75
2020/12/10 10:44:46;;;;;;;12.25;7.93;;;3.10;79.70;;;;;;4979371;28;20089;-76
2020/12/10 10:47:12;;;;;;;12.80;7.95;;;3.10;79.70;;;;;;4987993;28;20034;-78
2020/12/10 10:49:38;;;;;;;14.60;8.50;;;3.10;79.70;;;;;;4987980;28;20138;-76
2020/12/10 10:52:03;;;;;;;13.13;8.23;;;3.10;79.70;;;;;;4979480;28;20035;-79
2020/12/10 10:54:32;;;;;;;13.60;8.23;;;3.10;79.70;;;;;;4969720;28;20047;-76
2020/12/10 10:56:57;;;;;;;13.27;8.40;;;3.10;79.70;;;;;;4940158;28;20394;-77
2020/12/10 10:59:23;;;;;;;13.18;8.38;;;3.20;79.70;;;;;;4965142;28;20023;-77
2020/12/10 11:01:49;;;;;;;13.07;8.32;;;3.20;79.70;;;;;;4989042;28;20117;-75
2020/12/10 11:04:15;;;;;;;13.32;8.57;;;3.20;79.80;;;;;;4966910;28;20467;-74
2020/12/10 11:07:05;;;;;;;11.98;7.53;;;3.20;79.70;;;;;;5004194;28;20042;-78
2020/12/10 11:09:32;;;;;;;11.68;7.88;;;3.20;79.80;;;;;;4966642;28;20537;-75
2020/12/10 11:11:58;;;;;;;12.68;7.97;;;3.20;79.70;;;;;;4980000;28;20027;-76
2020/12/10 11:14:23;;;;;;;12.45;8.02;;;3.20;79.70;;;;;;4980863;28;21292;-77
2020/12/10 11:16:56;;;;;;;13.15;8.63;;;3.20;79.70;;;;;;4992429;28;20042;-75
2020/12/10 11:19:22;;;;;;;11.98;7.43;;;3.20;79.70;;;;;;5004692;28;20108;-77
2020/12/10 11:21:51;;;;;;;12.25;7.82;;;3.20;79.80;;;;;;4995961;28;20031;-75
2020/12/10 11:24:22;;;;;;;12.55;7.22;;;3.20;79.80;;;;;;5011911;28;20042;-74
2020/12/10 11:26:52;;;;;;;13.32;8.23;;;3.30;79.80;;;;;;4963164;28;20399;-74
2020/12/10 11:29:20;;;;;;;13.70;8.15;;;3.30;79.80;;;;;;4995221;28;20030;-74
2020/12/10 11:31:45;;;;;;;13.10;8.68;;;3.30;79.80;;;;;;4988250;28;20034;-75
2020/12/10 11:34:13;;;;;;;12.57;8.07;;;3.30;79.80;;;;;;4983410;28;20035;-77
2020/12/10 11:36:59;;;;;;;12.15;7.70;;;3.30;79.80;;;;;;5005616;28;20038;-76
2020/12/10 11:39:25;;;;;;;13.15;8.50;;;3.30;79.80;;;;;;4989053;28;20031;-77
2020/12/10 11:41:53;;;;;;;13.13;8.38;;;3.30;79.80;;;;;;4983277;28;20042;-75
2020/12/10 11:44:43;;;;;;;12.43;7.68;;;3.30;79.80;;;;;;4995909;28;20026;-75
2020/12/10 11:47:13;;;;;;;13.07;8.32;;;3.30;79.80;;;;;;4975797;28;20097;-76
2020/12/10 11:49:59;;;;;;;13.07;8.02;;;3.30;79.80;;;;;;4985337;28;20042;-76
2020/12/10 11:52:26;;;;;;;13.63;8.45;;;3.30;79.70;;;;;;5010660;28;20031;-75
2020/12/10 11:54:54;;;;;;;12.68;8.07;;;3.40;79.90;;;;;;5007127;28;20039;-75
2020/12/10 11:57:19;;;;;;;12.55;7.75;;;3.40;79.80;;;;;;4984565;28;20038;-75
2020/12/10 11:59:45;;;;;;;13.85;8.77;;;3.40;79.90;;;;;;4993232;28;20129;-77
2020/12/10 12:02:31;;;;;;;13.90;8.38;;;3.40;79.90;;;;;;4989539;28;20085;-78
2020/12/10 12:04:56;;;;;;;12.65;8.05;;;3.40;79.90;;;;;;4978736;28;20030;-75
2020/12/10 12:07:22;;;;;;;12.93;8.70;;;3.40;79.80;;;;;;4994547;28;20101;-76
2020/12/10 12:09:48;;;;;;;13.05;7.75;;;3.40;79.80;;;;;;4978602;28;20042;-76
2020/12/10 12:12:14;;;;;;;12.50;8.45;;;3.40;79.80;;;;;;4980338;28;20125;-77
2020/12/10 12:14:39;;;;;;;13.70;8.57;;;3.40;79.90;;;;;;4989562;28;20046;-76
2020/12/10 12:17:05;;;;;;;14.27;8.10;;;3.40;79.80;;;;;;4965185;28;20474;-75
2020/12/10 12:19:31;;;;;;;13.93;8.10;;;3.40;79.90;;;;;;4993608;28;20027;-77
2020/12/10 12:22:01;;;;;;;13.57;8.40;;;3.50;79.90;;;;;;4992342;28;20495;-76
2020/12/10 12:24:27;;;;;;;11.90;7.95;;;3.50;79.90;;;;;;4980326;28;20488;-77
2020/12/10 12:26:52;;;;;;;14.32;7.95;;;3.50;79.90;;;;;;4992740;28;20027;-78
2020/12/10 12:29:18;;;;;;;13.93;8.55;;;3.50;80.00;;;;;;4992393;28;20542;-75
2020/12/10 12:31:44;;;;;;;13.68;8.48;;;3.50;79.90;;;;;;4990416;28;20035;-76
2020/12/10 12:34:10;;;;;;;13.07;8.10;;;3.50;79.90;;;;;;4982901;28;20145;-81
2020/12/10 12:36:35;;;;;;;12.63;7.97;;;3.60;80.00;;;;;;4970244;28;20034;-77
2020/12/10 12:39:13;;;;;;;12.82;8.50;;;3.50;79.90;;;;;;4975622;28;20556;-80
2020/12/10 12:41:39;;;;;;;14.02;8.70;;;3.60;80.00;;;;;;4982500;28;20054;-76
2020/12/10 12:44:05;;;;;;;12.35;8.40;;;3.60;80.00;;;;;;4979691;28;20039;-77
2020/12/10 12:46:32;;;;;;;14.32;8.48;;;3.60;80.00;;;;;;4980885;28;20027;-77
2020/12/10 12:49:17;;;;;;;13.13;7.93;;;3.60;80.00;;;;;;4991189;28;20033;-77
2020/12/10 12:51:43;;;;;;;14.05;8.73;;;3.60;80.00;;;;;;4981751;28;20046;-79
2020/12/10 12:54:13;;;;;;;13.25;8.63;;;3.60;79.90;;;;;;4986920;28;20049;-75
2020/12/10 12:56:39;;;;;;;14.70;9.35;;;3.60;80.00;;;;;;4993633;28;20442;-75
2020/12/10 12:59:05;;;;;;;13.73;8.27;;;3.70;80.00;;;;;;4988742;28;20108;-75
2020/12/10 13:01:37;;;;;;;13.63;8.30;;;3.60;80.00;;;;;;4989850;28;20042;-76